createdAt,value
2018-09-30T00:00:49.604Z,0.00
2018-09-30T00:01:49.569Z,0.00
2018-09-30T00:02:49.537Z,0.00
2018-09-30T00:03:49.512Z,0.00
2018-09-30T00:04:49.477Z,0.00
2018-09-30T00:05:49.447Z,0.00
2018-09-30T00:06:49.415Z,0.00
2018-09-30T00:07:49.383Z,0.00
2018-09-30T00:08:49.352Z,0.00
2018-09-30T00:09:49.322Z,0.00
2018-09-30T00:10:49.291Z,0.00
2018-09-30T00:11:49.261Z,0.00
2018-09-30T00:12:49.228Z,0.00
2018-09-30T00:13:49.198Z,0.00
2018-09-30T00:14:49.167Z,0.00
2018-09-30T00:15:49.138Z,0.00
2018-09-30T00:16:49.105Z,0.00
2018-09-30T00:17:49.073Z,0.00
2018-09-30T00:18:49.043Z,0.00
2018-09-30T00:19:49.012Z,0.00
2018-09-30T00:20:48.981Z,0.00
2018-09-30T00:21:48.950Z,0.00
2018-09-30T00:22:48.922Z,0.00
2018-09-30T00:23:48.889Z,0.00
2018-09-30T00:24:48.856Z,0.00
2018-09-30T00:25:48.824Z,0.00
2018-09-30T00:26:48.797Z,0.00
2018-09-30T00:27:48.763Z,0.00
2018-09-30T00:28:48.732Z,0.00
2018-09-30T00:29:48.702Z,0.00
2018-09-30T00:30:48.671Z,0.00
2018-09-30T00:31:48.642Z,0.00
2018-09-30T00:32:48.607Z,0.00
2018-09-30T00:33:48.577Z,0.00
2018-09-30T00:34:48.547Z,0.00
2018-09-30T00:35:48.518Z,0.00
2018-09-30T00:36:48.484Z,0.00
2018-09-30T00:37:48.452Z,0.00
2018-09-30T00:38:48.421Z,0.00
2018-09-30T00:39:48.390Z,0.00
2018-09-30T00:40:48.364Z,0.00
2018-09-30T00:41:48.329Z,0.00
2018-09-30T00:42:48.298Z,0.00
2018-09-30T00:43:48.268Z,0.00
2018-09-30T00:44:48.235Z,0.00
2018-09-30T00:45:48.204Z,0.00
2018-09-30T00:46:48.173Z,0.00
2018-09-30T00:47:48.143Z,0.00
2018-09-30T00:48:48.111Z,0.00
2018-09-30T00:49:48.082Z,0.00
2018-09-30T00:50:48.052Z,0.00
2018-09-30T00:51:48.019Z,0.00
2018-09-30T00:52:47.986Z,0.00
2018-09-30T00:53:47.957Z,0.00
2018-09-30T00:54:47.924Z,0.00
2018-09-30T00:55:47.900Z,0.00
2018-09-30T00:56:47.866Z,0.00
2018-09-30T00:57:47.831Z,0.00
2018-09-30T00:58:47.802Z,0.00
2018-09-30T00:59:47.771Z,0.00
2018-09-30T01:00:47.736Z,0.00
2018-09-30T01:01:47.707Z,0.00
2018-09-30T01:02:47.675Z,0.00
2018-09-30T01:03:47.645Z,0.00
2018-09-30T01:04:47.613Z,0.00
2018-09-30T01:05:47.582Z,0.00
2018-09-30T01:06:47.551Z,0.00
2018-09-30T01:07:47.521Z,0.00
2018-09-30T01:08:47.491Z,0.00
2018-09-30T01:09:47.457Z,0.00
2018-09-30T01:10:47.428Z,0.00
2018-09-30T01:11:47.395Z,0.00
2018-09-30T01:12:47.364Z,0.00
2018-09-30T01:13:47.335Z,0.00
2018-09-30T01:14:47.301Z,0.00
2018-09-30T01:15:47.271Z,0.00
2018-09-30T01:16:47.239Z,0.00
2018-09-30T01:17:47.208Z,0.00
2018-09-30T01:18:47.180Z,0.00
2018-09-30T01:19:47.147Z,0.00
2018-09-30T01:20:47.116Z,0.00
2018-09-30T01:21:47.082Z,0.00
2018-09-30T01:22:47.052Z,0.00
2018-09-30T01:23:47.022Z,0.00
2018-09-30T01:24:46.989Z,0.00
2018-09-30T01:25:46.959Z,0.00
2018-09-30T01:26:46.927Z,0.00
2018-09-30T01:27:46.897Z,0.00
2018-09-30T01:28:46.865Z,0.00
2018-09-30T01:29:46.833Z,0.00
2018-09-30T01:30:46.809Z,0.00
2018-09-30T01:31:46.771Z,0.00
2018-09-30T01:32:46.739Z,0.00
2018-09-30T01:33:46.709Z,0.00
2018-09-30T01:34:46.681Z,0.00
2018-09-30T01:35:46.648Z,0.00
2018-09-30T01:36:46.616Z,0.00
2018-09-30T01:37:46.583Z,0.00
2018-09-30T01:38:46.554Z,0.00
2018-09-30T01:39:46.523Z,0.00
2018-09-30T01:40:46.491Z,0.00
2018-09-30T01:41:46.459Z,0.00
2018-09-30T01:42:46.429Z,0.00
2018-09-30T01:43:46.397Z,0.00
2018-09-30T01:44:46.366Z,0.00
2018-09-30T01:45:46.337Z,0.00
2018-09-30T01:46:46.303Z,0.00
2018-09-30T01:47:46.272Z,0.00
2018-09-30T01:48:46.241Z,0.00
2018-09-30T01:49:46.210Z,0.00
2018-09-30T01:50:46.178Z,0.00
2018-09-30T01:51:46.148Z,0.00
2018-09-30T01:52:46.116Z,0.00
2018-09-30T01:53:46.086Z,0.00
2018-09-30T01:54:46.054Z,0.00
2018-09-30T01:55:46.026Z,0.00
2018-09-30T01:56:45.993Z,0.00
2018-09-30T01:57:45.962Z,0.00
2018-09-30T01:58:45.929Z,0.00
2018-09-30T01:59:45.899Z,0.00
2018-09-30T02:00:45.866Z,0.00
2018-09-30T02:01:45.842Z,0.00
2018-09-30T02:02:45.804Z,0.00
2018-09-30T02:03:45.772Z,0.00
2018-09-30T02:04:45.740Z,0.00
2018-09-30T02:05:45.712Z,0.00
2018-09-30T02:06:45.678Z,0.00
2018-09-30T02:07:45.648Z,0.00
2018-09-30T02:08:45.617Z,0.00
2018-09-30T02:09:45.587Z,0.00
2018-09-30T02:10:45.553Z,0.00
2018-09-30T02:11:45.522Z,0.00
2018-09-30T02:12:45.495Z,0.00
2018-09-30T02:13:45.461Z,0.00
2018-09-30T02:14:45.428Z,0.00
2018-09-30T02:15:45.399Z,0.00
2018-09-30T02:16:45.365Z,0.00
2018-09-30T02:17:45.335Z,0.00
2018-09-30T02:18:45.303Z,0.00
2018-09-30T02:19:45.273Z,0.00
2018-09-30T02:20:45.240Z,0.00
2018-09-30T02:21:45.210Z,0.00
2018-09-30T02:22:45.178Z,0.00
2018-09-30T02:23:45.152Z,0.00
2018-09-30T02:24:45.116Z,0.00
2018-09-30T02:25:45.085Z,0.00
2018-09-30T02:26:45.054Z,0.00
2018-09-30T02:27:45.023Z,0.00
2018-09-30T02:28:44.990Z,0.00
2018-09-30T02:29:44.961Z,0.00
2018-09-30T02:30:44.928Z,0.00
2018-09-30T02:31:44.898Z,0.00
2018-09-30T02:32:44.866Z,0.00
2018-09-30T02:33:44.833Z,0.00
2018-09-30T02:34:44.802Z,0.00
2018-09-30T02:35:44.771Z,0.00
2018-09-30T02:36:44.739Z,0.00
2018-09-30T02:37:44.710Z,0.00
2018-09-30T02:38:44.678Z,0.00
2018-09-30T02:39:44.647Z,0.00
2018-09-30T02:40:44.614Z,0.00
2018-09-30T02:41:44.601Z,0.00
2018-09-30T02:42:44.552Z,0.00
2018-09-30T02:43:44.522Z,0.00
2018-09-30T02:44:44.488Z,0.00
2018-09-30T02:45:44.457Z,0.00
2018-09-30T02:46:44.427Z,0.00
2018-09-30T02:47:44.398Z,0.00
2018-09-30T02:48:44.409Z,0.00
2018-09-30T02:49:44.335Z,0.00
2018-09-30T02:50:44.305Z,0.00
2018-09-30T02:51:44.271Z,0.00
2018-09-30T02:52:44.237Z,0.00
2018-09-30T02:53:44.208Z,0.00
2018-09-30T02:54:44.178Z,0.00
2018-09-30T02:55:44.143Z,0.00
2018-09-30T02:56:44.112Z,0.00
2018-09-30T02:57:44.084Z,0.00
2018-09-30T02:58:44.056Z,0.00
2018-09-30T02:59:44.019Z,0.00
2018-09-30T03:00:43.990Z,0.00
2018-09-30T03:01:43.957Z,0.00
2018-09-30T03:02:43.924Z,0.00
2018-09-30T03:03:43.892Z,0.00
2018-09-30T03:04:43.865Z,0.00
2018-09-30T03:05:43.834Z,0.00
2018-09-30T03:06:43.799Z,0.00
2018-09-30T03:07:43.770Z,0.00
2018-09-30T03:08:43.739Z,0.00
2018-09-30T03:09:43.703Z,0.00
2018-09-30T03:10:43.673Z,0.00
2018-09-30T03:11:43.642Z,0.00
2018-09-30T03:12:43.609Z,0.00
2018-09-30T03:13:43.577Z,0.00
2018-09-30T03:14:43.548Z,0.00
2018-09-30T03:15:43.515Z,0.00
2018-09-30T03:16:43.484Z,0.00
2018-09-30T03:17:43.455Z,0.00
2018-09-30T03:18:43.421Z,0.00
2018-09-30T03:19:43.389Z,0.00
2018-09-30T03:20:43.358Z,0.00
2018-09-30T03:21:43.325Z,0.00
2018-09-30T03:22:43.294Z,0.00
2018-09-30T03:23:43.262Z,0.00
2018-09-30T03:24:43.229Z,0.00
2018-09-30T03:25:43.199Z,0.00
2018-09-30T03:26:43.168Z,0.00
2018-09-30T03:27:43.138Z,0.00
2018-09-30T03:28:43.105Z,0.00
2018-09-30T03:29:43.073Z,0.00
2018-09-30T03:30:43.043Z,0.00
2018-09-30T03:31:43.010Z,0.00
2018-09-30T03:32:42.978Z,0.00
2018-09-30T03:33:42.950Z,0.00
2018-09-30T03:34:42.915Z,0.00
2018-09-30T03:35:42.885Z,0.00
2018-09-30T03:36:42.851Z,0.00
2018-09-30T03:37:42.821Z,0.00
2018-09-30T03:38:42.789Z,0.00
2018-09-30T03:39:42.856Z,0.00
2018-09-30T03:40:42.727Z,0.00
2018-09-30T03:41:42.703Z,0.00
2018-09-30T03:42:42.663Z,0.00
2018-09-30T03:43:42.635Z,0.00
2018-09-30T03:44:42.598Z,0.00
2018-09-30T03:45:42.568Z,0.00
2018-09-30T03:46:42.537Z,0.00
2018-09-30T03:47:42.508Z,0.00
2018-09-30T03:48:42.473Z,0.00
2018-09-30T03:49:42.441Z,0.00
2018-09-30T03:50:42.408Z,0.00
2018-09-30T03:51:42.377Z,0.00
2018-09-30T03:52:42.344Z,0.00
2018-09-30T03:53:42.315Z,0.00
2018-09-30T03:54:42.284Z,0.00
2018-09-30T03:55:42.251Z,0.00
2018-09-30T03:56:42.252Z,0.00
2018-09-30T03:57:42.187Z,0.00
2018-09-30T03:58:42.154Z,0.00
2018-09-30T03:59:42.123Z,0.00
2018-09-30T04:00:42.091Z,0.00
2018-09-30T04:01:42.061Z,0.00
2018-09-30T04:02:42.030Z,0.00
2018-09-30T04:03:41.998Z,0.00
2018-09-30T04:04:41.964Z,0.00
2018-09-30T04:05:41.934Z,0.00
2018-09-30T04:06:41.902Z,0.00
2018-09-30T04:07:41.869Z,0.00
2018-09-30T04:08:41.837Z,0.00
2018-09-30T04:09:41.891Z,0.00
2018-09-30T04:10:41.774Z,0.00
2018-09-30T04:11:41.742Z,0.00
2018-09-30T04:12:41.710Z,0.00
2018-09-30T04:13:41.678Z,0.00
2018-09-30T04:14:41.646Z,0.00
2018-09-30T04:15:41.616Z,0.00
2018-09-30T04:16:41.583Z,0.00
2018-09-30T04:17:41.550Z,0.00
2018-09-30T04:18:41.521Z,0.00
2018-09-30T04:19:41.490Z,0.00
2018-09-30T04:20:41.455Z,0.00
2018-09-30T04:21:41.423Z,0.00
2018-09-30T04:22:41.391Z,0.00
2018-09-30T04:23:41.363Z,0.00
2018-09-30T04:24:41.329Z,0.00
2018-09-30T04:25:41.296Z,0.00
2018-09-30T04:26:41.265Z,0.00
2018-09-30T04:27:41.234Z,0.00
2018-09-30T04:28:41.200Z,0.00
2018-09-30T04:29:41.169Z,0.00
2018-09-30T04:30:41.140Z,0.00
2018-09-30T04:31:41.106Z,0.00
2018-09-30T04:32:41.073Z,0.00
2018-09-30T04:33:41.041Z,0.00
2018-09-30T04:34:41.011Z,0.00
2018-09-30T04:35:40.978Z,0.00
2018-09-30T04:36:40.945Z,0.00
2018-09-30T04:37:40.914Z,0.00
2018-09-30T04:38:40.881Z,0.00
2018-09-30T04:39:40.850Z,0.00
2018-09-30T04:40:40.821Z,0.00
2018-09-30T04:41:40.786Z,0.00
2018-09-30T04:42:40.752Z,0.00
2018-09-30T04:43:40.721Z,0.00
2018-09-30T04:44:40.689Z,0.00
2018-09-30T04:45:40.657Z,0.00
2018-09-30T04:46:40.625Z,0.00
2018-09-30T04:47:40.594Z,0.00
2018-09-30T04:48:40.559Z,0.00
2018-09-30T04:49:40.534Z,0.00
2018-09-30T04:50:40.498Z,0.00
2018-09-30T04:51:40.465Z,0.00
2018-09-30T04:52:40.431Z,0.00
2018-09-30T04:53:40.400Z,0.00
2018-09-30T04:54:40.367Z,0.00
2018-09-30T04:55:40.336Z,0.00
2018-09-30T04:56:40.304Z,0.00
2018-09-30T04:57:40.272Z,0.00
2018-09-30T04:58:40.240Z,0.00
2018-09-30T04:59:40.209Z,0.00
2018-09-30T05:00:40.175Z,5.63
2018-09-30T05:01:40.144Z,5.63
2018-09-30T05:02:40.111Z,5.63
2018-09-30T05:03:40.080Z,5.63
2018-09-30T05:04:40.049Z,5.63
2018-09-30T05:05:40.024Z,5.63
2018-09-30T05:06:39.983Z,5.63
2018-09-30T05:07:39.951Z,11.25
2018-09-30T05:08:39.918Z,11.25
2018-09-30T05:09:39.885Z,11.25
2018-09-30T05:10:39.853Z,11.25
2018-09-30T05:11:39.825Z,11.25
2018-09-30T05:12:39.790Z,16.88
2018-09-30T05:13:39.759Z,16.88
2018-09-30T05:14:39.724Z,16.88
2018-09-30T05:15:39.692Z,22.50
2018-09-30T05:16:39.660Z,22.50
2018-09-30T05:17:39.627Z,22.50
2018-09-30T05:18:39.596Z,28.13
2018-09-30T05:19:39.565Z,28.13
2018-09-30T05:20:39.530Z,28.13
2018-09-30T05:21:39.500Z,33.75
2018-09-30T05:22:39.469Z,33.75
2018-09-30T05:23:39.435Z,33.75
2018-09-30T05:24:39.402Z,39.38
2018-09-30T05:25:39.413Z,39.38
2018-09-30T05:26:39.337Z,45.00
2018-09-30T05:27:39.307Z,45.00
2018-09-30T05:28:39.272Z,50.63
2018-09-30T05:29:39.242Z,50.63
2018-09-30T05:30:39.209Z,50.63
2018-09-30T05:31:39.177Z,56.25
2018-09-30T05:32:39.147Z,56.25
2018-09-30T05:33:39.112Z,61.88
2018-09-30T05:34:39.081Z,61.88
2018-09-30T05:35:39.054Z,67.50
2018-09-30T05:36:39.017Z,73.13
2018-09-30T05:37:38.983Z,73.13
2018-09-30T05:38:38.951Z,78.75
2018-09-30T05:39:38.920Z,78.75
2018-09-30T05:40:38.912Z,78.75
2018-09-30T05:41:38.854Z,84.38
2018-09-30T05:42:38.821Z,90.00
2018-09-30T05:43:38.791Z,90.00
2018-09-30T05:44:38.757Z,95.63
2018-09-30T05:45:38.724Z,101.25
2018-09-30T05:46:38.691Z,106.88
2018-09-30T05:47:38.659Z,112.50
2018-09-30T05:48:38.627Z,112.50
2018-09-30T05:49:38.595Z,118.13
2018-09-30T05:50:38.565Z,123.75
2018-09-30T05:51:38.532Z,123.75
2018-09-30T05:52:38.499Z,129.38
2018-09-30T05:53:38.465Z,129.38
2018-09-30T05:54:38.436Z,135.00
2018-09-30T05:55:38.403Z,140.63
2018-09-30T05:56:38.370Z,157.50
2018-09-30T05:57:38.404Z,163.13
2018-09-30T05:58:38.306Z,157.50
2018-09-30T05:59:38.274Z,157.50
2018-09-30T06:00:38.241Z,168.75
2018-09-30T06:01:38.212Z,180.00
2018-09-30T06:02:38.177Z,202.50
2018-09-30T06:03:38.145Z,202.50
2018-09-30T06:04:38.114Z,196.88
2018-09-30T06:05:38.080Z,196.88
2018-09-30T06:06:38.050Z,196.88
2018-09-30T06:07:38.020Z,202.50
2018-09-30T06:08:37.985Z,230.63
2018-09-30T06:09:37.957Z,292.50
2018-09-30T06:10:37.924Z,360.00
2018-09-30T06:11:37.892Z,382.50
2018-09-30T06:12:37.859Z,405.00
2018-09-30T06:13:37.891Z,416.25
2018-09-30T06:14:37.797Z,421.88
2018-09-30T06:15:37.766Z,427.50
2018-09-30T06:16:37.735Z,444.38
2018-09-30T06:17:37.707Z,466.88
2018-09-30T06:18:37.675Z,478.13
2018-09-30T06:19:37.646Z,478.13
2018-09-30T06:20:37.615Z,478.13
2018-09-30T06:21:37.586Z,478.13
2018-09-30T06:22:37.560Z,489.38
2018-09-30T06:23:37.531Z,506.25
2018-09-30T06:24:37.501Z,511.88
2018-09-30T06:25:37.472Z,511.88
2018-09-30T06:26:37.444Z,506.25
2018-09-30T06:27:37.422Z,495.00
2018-09-30T06:28:37.390Z,500.63
2018-09-30T06:29:37.363Z,523.13
2018-09-30T06:30:37.336Z,551.25
2018-09-30T06:31:37.339Z,556.88
2018-09-30T06:32:37.287Z,551.25
2018-09-30T06:33:37.258Z,540.00
2018-09-30T06:34:37.232Z,534.38
2018-09-30T06:35:37.207Z,511.88
2018-09-30T06:36:37.183Z,472.50
2018-09-30T06:37:37.155Z,500.63
2018-09-30T06:38:37.130Z,545.63
2018-09-30T06:39:37.108Z,613.13
2018-09-30T06:40:37.085Z,562.50
2018-09-30T06:41:37.057Z,579.38
2018-09-30T06:42:37.032Z,556.88
2018-09-30T06:43:37.007Z,466.88
2018-09-30T06:44:36.982Z,416.25
2018-09-30T06:45:36.961Z,585.00
2018-09-30T06:46:36.933Z,382.50
2018-09-30T06:47:36.911Z,703.13
2018-09-30T06:48:36.885Z,663.75
2018-09-30T06:49:36.861Z,686.25
2018-09-30T06:50:36.885Z,618.75
2018-09-30T06:51:36.813Z,652.50
2018-09-30T06:52:36.788Z,466.88
2018-09-30T06:53:36.765Z,714.38
2018-09-30T06:54:36.740Z,669.38
2018-09-30T06:55:36.718Z,624.38
2018-09-30T06:56:36.692Z,714.38
2018-09-30T06:57:36.668Z,736.88
2018-09-30T06:58:36.646Z,765.00
2018-09-30T06:59:36.622Z,787.50
2018-09-30T07:00:36.598Z,793.13
2018-09-30T07:01:36.574Z,776.25
2018-09-30T07:02:36.552Z,759.38
2018-09-30T07:03:36.528Z,765.00
2018-09-30T07:04:36.504Z,787.50
2018-09-30T07:05:36.482Z,832.50
2018-09-30T07:06:36.458Z,866.25
2018-09-30T07:07:36.438Z,877.50
2018-09-30T07:08:36.413Z,855.00
2018-09-30T07:09:36.390Z,849.38
2018-09-30T07:10:36.367Z,871.88
2018-09-30T07:11:36.346Z,900.00
2018-09-30T07:12:36.324Z,933.75
2018-09-30T07:13:36.300Z,928.13
2018-09-30T07:14:36.277Z,900.00
2018-09-30T07:15:36.255Z,883.13
2018-09-30T07:16:36.232Z,911.25
2018-09-30T07:17:36.211Z,956.25
2018-09-30T07:18:36.188Z,995.63
2018-09-30T07:19:36.166Z,984.38
2018-09-30T07:20:36.144Z,973.13
2018-09-30T07:21:36.121Z,939.38
2018-09-30T07:22:36.157Z,928.13
2018-09-30T07:23:36.078Z,916.88
2018-09-30T07:24:36.056Z,939.38
2018-09-30T07:25:36.035Z,984.38
2018-09-30T07:26:36.012Z,1012.50
2018-09-30T07:27:35.991Z,1023.75
2018-09-30T07:28:35.968Z,1012.50
2018-09-30T07:29:35.945Z,995.63
2018-09-30T07:30:35.924Z,990.00
2018-09-30T07:31:35.903Z,1018.13
2018-09-30T07:32:35.879Z,1040.63
2018-09-30T07:33:35.881Z,1080.00
2018-09-30T07:34:35.838Z,1113.75
2018-09-30T07:35:35.815Z,1096.88
2018-09-30T07:36:35.792Z,1074.38
2018-09-30T07:37:35.772Z,1051.88
2018-09-30T07:38:35.751Z,1046.25
2018-09-30T07:39:35.819Z,1096.88
2018-09-30T07:40:35.706Z,1136.25
2018-09-30T07:41:35.687Z,1164.38
2018-09-30T07:42:35.668Z,1186.88
2018-09-30T07:43:35.644Z,1147.50
2018-09-30T07:44:35.623Z,1125.00
2018-09-30T07:45:35.602Z,1147.50
2018-09-30T07:46:35.628Z,1125.00
2018-09-30T07:47:35.557Z,1153.13
2018-09-30T07:48:35.537Z,922.50
2018-09-30T07:49:35.514Z,883.13
2018-09-30T07:50:35.492Z,826.88
2018-09-30T07:51:35.472Z,939.38
2018-09-30T07:52:35.511Z,1057.50
2018-09-30T07:53:35.430Z,1175.63
2018-09-30T07:54:35.407Z,1136.25
2018-09-30T07:55:35.385Z,1136.25
2018-09-30T07:56:35.362Z,1147.50
2018-09-30T07:57:35.345Z,1153.13
2018-09-30T07:58:35.320Z,1192.50
2018-09-30T07:59:35.299Z,1209.38
2018-09-30T08:00:35.276Z,1265.63
2018-09-30T08:01:35.255Z,1305.00
2018-09-30T08:02:35.234Z,1327.50
2018-09-30T08:03:35.213Z,1316.25
2018-09-30T08:04:35.191Z,1276.88
2018-09-30T08:05:35.171Z,1248.75
2018-09-30T08:06:35.234Z,1209.38
2018-09-30T08:07:35.133Z,1198.13
2018-09-30T08:08:35.109Z,1186.88
2018-09-30T08:09:35.087Z,1192.50
2018-09-30T08:10:35.066Z,1215.00
2018-09-30T08:11:35.049Z,1260.00
2018-09-30T08:12:35.024Z,1305.00
2018-09-30T08:13:35.004Z,1321.88
2018-09-30T08:14:34.983Z,1305.00
2018-09-30T08:15:34.964Z,1282.50
2018-09-30T08:16:35.003Z,1248.75
2018-09-30T08:17:34.923Z,1248.75
2018-09-30T08:18:34.903Z,1276.88
2018-09-30T08:19:34.883Z,1305.00
2018-09-30T08:20:34.860Z,1333.13
2018-09-30T08:21:34.840Z,1350.00
2018-09-30T08:22:34.820Z,1372.50
2018-09-30T08:23:34.801Z,1389.38
2018-09-30T08:24:34.789Z,1395.00
2018-09-30T08:25:34.758Z,1400.63
2018-09-30T08:26:34.740Z,1417.50
2018-09-30T08:27:34.719Z,1423.13
2018-09-30T08:28:34.700Z,1411.88
2018-09-30T08:29:34.679Z,1411.88
2018-09-30T08:30:34.698Z,1400.63
2018-09-30T08:31:34.640Z,1400.63
2018-09-30T08:32:34.626Z,1411.88
2018-09-30T08:33:34.598Z,1423.13
2018-09-30T08:34:34.580Z,1451.25
2018-09-30T08:35:34.558Z,1496.25
2018-09-30T08:36:34.539Z,1518.75
2018-09-30T08:37:34.518Z,1518.75
2018-09-30T08:38:34.497Z,1507.50
2018-09-30T08:39:34.520Z,1501.88
2018-09-30T08:40:34.455Z,1496.25
2018-09-30T08:41:34.437Z,1513.13
2018-09-30T08:42:34.416Z,1558.13
2018-09-30T08:43:34.396Z,1586.25
2018-09-30T08:44:34.375Z,1575.00
2018-09-30T08:45:34.355Z,1552.50
2018-09-30T08:46:34.339Z,1530.00
2018-09-30T08:47:34.346Z,1507.50
2018-09-30T08:48:34.304Z,1479.38
2018-09-30T08:49:34.275Z,1479.38
2018-09-30T08:50:34.256Z,1485.00
2018-09-30T08:51:34.237Z,1496.25
2018-09-30T08:52:34.217Z,1513.13
2018-09-30T08:53:34.202Z,1530.00
2018-09-30T08:54:34.178Z,1558.13
2018-09-30T08:55:34.159Z,1563.75
2018-09-30T08:56:34.139Z,1541.25
2018-09-30T08:57:34.119Z,1524.38
2018-09-30T08:58:34.100Z,1513.13
2018-09-30T08:59:34.081Z,1513.13
2018-09-30T09:00:34.061Z,1530.00
2018-09-30T09:01:34.041Z,1524.38
2018-09-30T09:02:34.022Z,1569.38
2018-09-30T09:03:34.004Z,1603.13
2018-09-30T09:04:33.984Z,1625.63
2018-09-30T09:05:33.965Z,1642.50
2018-09-30T09:06:33.946Z,1648.13
2018-09-30T09:07:33.928Z,1642.50
2018-09-30T09:08:33.911Z,1625.63
2018-09-30T09:09:33.890Z,1608.75
2018-09-30T09:10:33.871Z,1586.25
2018-09-30T09:11:33.851Z,1569.38
2018-09-30T09:12:33.832Z,1575.00
2018-09-30T09:13:33.812Z,1591.88
2018-09-30T09:14:33.795Z,1614.38
2018-09-30T09:15:33.858Z,1620.00
2018-09-30T09:16:33.755Z,1625.63
2018-09-30T09:17:33.736Z,1625.63
2018-09-30T09:18:33.716Z,1620.00
2018-09-30T09:19:33.700Z,1636.88
2018-09-30T09:20:33.679Z,1659.38
2018-09-30T09:21:33.658Z,1681.88
2018-09-30T09:22:33.680Z,1693.13
2018-09-30T09:23:33.626Z,1687.50
2018-09-30T09:24:33.602Z,1648.13
2018-09-30T09:25:33.585Z,1608.75
2018-09-30T09:26:33.565Z,1558.13
2018-09-30T09:27:33.546Z,1535.63
2018-09-30T09:28:33.525Z,1535.63
2018-09-30T09:29:33.508Z,1558.13
2018-09-30T09:30:33.488Z,1569.38
2018-09-30T09:31:33.477Z,1597.50
2018-09-30T09:32:33.451Z,1620.00
2018-09-30T09:33:33.434Z,1642.50
2018-09-30T09:34:33.415Z,1653.75
2018-09-30T09:35:33.397Z,1653.75
2018-09-30T09:36:33.378Z,1636.88
2018-09-30T09:37:33.360Z,1608.75
2018-09-30T09:38:33.405Z,1603.13
2018-09-30T09:39:33.324Z,1591.88
2018-09-30T09:40:33.306Z,1597.50
2018-09-30T09:41:33.286Z,1625.63
2018-09-30T09:42:33.271Z,1648.13
2018-09-30T09:43:33.249Z,1693.13
2018-09-30T09:44:33.232Z,1704.38
2018-09-30T09:45:33.213Z,1715.63
2018-09-30T09:46:33.195Z,1704.38
2018-09-30T09:47:33.176Z,1693.13
2018-09-30T09:48:33.157Z,1693.13
2018-09-30T09:49:33.142Z,1636.88
2018-09-30T09:50:33.119Z,1597.50
2018-09-30T09:51:33.103Z,1563.75
2018-09-30T09:52:33.141Z,1552.50
2018-09-30T09:53:33.069Z,1569.38
2018-09-30T09:54:33.049Z,1586.25
2018-09-30T09:55:33.030Z,1597.50
2018-09-30T09:56:33.010Z,1625.63
2018-09-30T09:57:32.991Z,1625.63
2018-09-30T09:58:32.977Z,1586.25
2018-09-30T09:59:32.956Z,1552.50
2018-09-30T10:00:32.935Z,1507.50
2018-09-30T10:01:32.916Z,1440.00
2018-09-30T10:02:32.899Z,1383.75
2018-09-30T10:03:32.881Z,1350.00
2018-09-30T10:04:32.861Z,1366.88
2018-09-30T10:05:32.842Z,1400.63
2018-09-30T10:06:32.824Z,1456.88
2018-09-30T10:07:32.806Z,1490.63
2018-09-30T10:08:32.786Z,1501.88
2018-09-30T10:09:32.767Z,1507.50
2018-09-30T10:10:32.748Z,1496.25
2018-09-30T10:11:32.731Z,1485.00
2018-09-30T10:12:32.711Z,1485.00
2018-09-30T10:13:32.695Z,1473.75
2018-09-30T10:14:32.676Z,1479.38
2018-09-30T10:15:32.657Z,1507.50
2018-09-30T10:16:32.639Z,1535.63
2018-09-30T10:17:32.620Z,1558.13
2018-09-30T10:18:32.603Z,1575.00
2018-09-30T10:19:32.649Z,1591.88
2018-09-30T10:20:32.565Z,1580.63
2018-09-30T10:21:32.547Z,1563.75
2018-09-30T10:22:32.529Z,1558.13
2018-09-30T10:23:32.512Z,1541.25
2018-09-30T10:24:32.498Z,1530.00
2018-09-30T10:25:32.474Z,1558.13
2018-09-30T10:26:32.456Z,1563.75
2018-09-30T10:27:32.443Z,1580.63
2018-09-30T10:28:32.420Z,1580.63
2018-09-30T10:29:32.403Z,1591.88
2018-09-30T10:30:32.383Z,1603.13
2018-09-30T10:31:32.367Z,1631.25
2018-09-30T10:32:32.348Z,1659.38
2018-09-30T10:33:32.332Z,1687.50
2018-09-30T10:34:32.314Z,1693.13
2018-09-30T10:35:32.298Z,1676.25
2018-09-30T10:36:32.278Z,1665.00
2018-09-30T10:37:32.261Z,1636.88
2018-09-30T10:38:32.409Z,1614.38
2018-09-30T10:39:32.224Z,1631.25
2018-09-30T10:40:32.210Z,1676.25
2018-09-30T10:41:32.193Z,1726.88
2018-09-30T10:42:32.173Z,1755.00
2018-09-30T10:43:32.159Z,1766.25
2018-09-30T10:44:32.139Z,1771.88
2018-09-30T10:45:32.120Z,1766.25
2018-09-30T10:46:32.103Z,1760.63
2018-09-30T10:47:32.084Z,1726.88
2018-09-30T10:48:32.170Z,1710.00
2018-09-30T10:49:32.049Z,1693.13
2018-09-30T10:50:32.030Z,1665.00
2018-09-30T10:51:32.013Z,1676.25
2018-09-30T10:52:31.994Z,1710.00
2018-09-30T10:53:31.977Z,1726.88
2018-09-30T10:54:31.958Z,1755.00
2018-09-30T10:55:31.940Z,1771.88
2018-09-30T10:56:31.921Z,1766.25
2018-09-30T10:57:31.903Z,1732.50
2018-09-30T10:58:31.886Z,1704.38
2018-09-30T10:59:31.868Z,1704.38
2018-09-30T11:00:31.850Z,1710.00
2018-09-30T11:01:31.831Z,1721.25
2018-09-30T11:02:31.812Z,1726.88
2018-09-30T11:03:31.832Z,1732.50
2018-09-30T11:04:31.778Z,1738.13
2018-09-30T11:05:31.757Z,1721.25
2018-09-30T11:06:31.738Z,1721.25
2018-09-30T11:07:31.722Z,1721.25
2018-09-30T11:08:31.703Z,1715.63
2018-09-30T11:09:31.719Z,1771.88
2018-09-30T11:10:31.669Z,1822.50
2018-09-30T11:11:31.648Z,1850.63
2018-09-30T11:12:31.629Z,1867.50
2018-09-30T11:13:31.613Z,1873.13
2018-09-30T11:14:31.595Z,1884.38
2018-09-30T11:15:31.587Z,1861.88
2018-09-30T11:16:31.556Z,1845.00
2018-09-30T11:17:31.538Z,1850.63
2018-09-30T11:18:31.560Z,1861.88
2018-09-30T11:19:31.502Z,1856.25
2018-09-30T11:20:31.483Z,1845.00
2018-09-30T11:21:31.463Z,1822.50
2018-09-30T11:22:31.461Z,1800.00
2018-09-30T11:23:31.428Z,1771.88
2018-09-30T11:24:31.409Z,1726.88
2018-09-30T11:25:31.392Z,1665.00
2018-09-30T11:26:31.372Z,1620.00
2018-09-30T11:27:31.355Z,1591.88
2018-09-30T11:28:31.336Z,1591.88
2018-09-30T11:29:31.319Z,1608.75
2018-09-30T11:30:31.300Z,1631.25
2018-09-30T11:31:31.280Z,1648.13
2018-09-30T11:32:31.263Z,1687.50
2018-09-30T11:33:31.248Z,1721.25
2018-09-30T11:34:31.225Z,1726.88
2018-09-30T11:35:31.210Z,1704.38
2018-09-30T11:36:31.189Z,1704.38
2018-09-30T11:37:31.171Z,1698.75
2018-09-30T11:38:31.154Z,1715.63
2018-09-30T11:39:31.136Z,1777.50
2018-09-30T11:40:31.116Z,1794.38
2018-09-30T11:41:31.099Z,1856.25
2018-09-30T11:42:31.079Z,1867.50
2018-09-30T11:43:31.061Z,1850.63
2018-09-30T11:44:31.042Z,1839.38
2018-09-30T11:45:31.026Z,1822.50
2018-09-30T11:46:31.006Z,1788.75
2018-09-30T11:47:30.987Z,1783.13
2018-09-30T11:48:30.968Z,1777.50
2018-09-30T11:49:30.950Z,1749.38
2018-09-30T11:50:30.933Z,1721.25
2018-09-30T11:51:30.913Z,1693.13
2018-09-30T11:52:30.902Z,1670.63
2018-09-30T11:53:30.876Z,1665.00
2018-09-30T11:54:30.858Z,1676.25
2018-09-30T11:55:30.841Z,1710.00
2018-09-30T11:56:30.821Z,1726.88
2018-09-30T11:57:30.802Z,1721.25
2018-09-30T11:58:30.784Z,1732.50
2018-09-30T11:59:30.766Z,1732.50
2018-09-30T12:00:30.746Z,1726.88
2018-09-30T12:01:30.728Z,1743.75
2018-09-30T12:02:30.709Z,1743.75
2018-09-30T12:03:30.692Z,1743.75
2018-09-30T12:04:30.671Z,1710.00
2018-09-30T12:05:30.654Z,1676.25
2018-09-30T12:06:30.634Z,1625.63
2018-09-30T12:07:30.617Z,1586.25
2018-09-30T12:08:30.597Z,1586.25
2018-09-30T12:09:30.581Z,1591.88
2018-09-30T12:10:30.560Z,1603.13
2018-09-30T12:11:30.540Z,1648.13
2018-09-30T12:12:30.522Z,1687.50
2018-09-30T12:13:30.504Z,1715.63
2018-09-30T12:14:30.485Z,1732.50
2018-09-30T12:15:30.465Z,1732.50
2018-09-30T12:16:30.447Z,1676.25
2018-09-30T12:17:30.428Z,1620.00
2018-09-30T12:18:30.464Z,1586.25
2018-09-30T12:19:30.392Z,1591.88
2018-09-30T12:20:30.372Z,1614.38
2018-09-30T12:21:30.354Z,1665.00
2018-09-30T12:22:30.335Z,1715.63
2018-09-30T12:23:30.317Z,1755.00
2018-09-30T12:24:30.296Z,1755.00
2018-09-30T12:25:30.279Z,1721.25
2018-09-30T12:26:30.261Z,1681.88
2018-09-30T12:27:30.243Z,1636.88
2018-09-30T12:28:30.223Z,1603.13
2018-09-30T12:29:30.205Z,1603.13
2018-09-30T12:30:30.188Z,1631.25
2018-09-30T12:31:30.172Z,1642.50
2018-09-30T12:32:30.149Z,1642.50
2018-09-30T12:33:30.136Z,1620.00
2018-09-30T12:34:30.114Z,1563.75
2018-09-30T12:35:30.096Z,1513.13
2018-09-30T12:36:30.077Z,1468.13
2018-09-30T12:37:30.059Z,1434.38
2018-09-30T12:38:30.039Z,1428.75
2018-09-30T12:39:30.028Z,1445.63